Redings Mill, Missouri
Current Conditions -  °F | °C
As of 9:53 PM on Saturday 20 Dec 2014 (Local Time) from KJLN Reporting Station
Overcast Overcast  
Wind Chill: 36°   Ceiling: 2300
Heat Index: 42°   Visibility: 10mi
Dew Point: 35°   Wind: 10mph
Humidity: 76%   Direction: 180°S
Pressure: 30.18"   Gusts: NA
Location:  37.1074°N, 94.5218°W
Report Text: KJLN 210353Z AUTO 18009KT 10SM OVC023 06/02 A3018 RMK AO2 SLP224 T00560017 $
Loading
Personal Weather Stations






























Interactive Weather Map New forecast layout! Learn more

10-Day Weather Forecast

Advertisements
Track Severe Weather on mobile